Terminal Aerodrome Forecast
Issued by NWS Melbourne, FL

Home | Current Version | Previous Version | Text Only | Print | Product List | Glossary On
Versions: 1 2 3 4 5 6 7 8 9 10 11 12 13 14
000
FTUS42 KMLB 200700 AAA
TAFDAB
TAF AMD
KDAB 200715Z 2007/2106 VRB03KT P6SM -RA FEW015 SCT030 OVC080
     FM201400 04005KT P6SM VCSH BKN030 OVC050
     FM201800 34007KT P6SM VCSH SCT030 OVC040
      TEMPO 2018/2021 3SM TSRA BKN025CB
     FM210000 VRB03KT P6SM SCT025 BKN040 BKN080=

USA.gov is the U.S. government's official web portal to all federal, state and local government web resources and services.